Latest Coastal Weather Observations for Neptune Island

IDS60701

Issued at 5:21 pm CST Sunday 20 August 2017 (issued every 10 minutes, with the page automatically refreshed every 10 minutes)

About coastal observations | Map of coastal stations | Coastal observations for SA | Marine services | Other Formats
Station Details ID: 018115 Name: NEPTUNE ISLAND Lat: -35.34 Lon: 136.12 Height: 32.0 m
Data from the previous 72 hours. | See also: Recent months at Neptune Island
Date/Time
CST
Temp
°C
Wind Pressure Rain since
9am
mm
Weather Cloud Vis
km
Sea
Height
m
Swell
Dir  Spd
kts
Gust
kts
hPa Trend Height
m
Period
s
Dir
20/05:00pm 11.2 NNE 32 39 1009.2 - 2.8 - - - - - - -
20/04:38pm 11.3 NNE 34 45 1009.0 - 2.8 - - - - - - -
20/04:30pm 11.5 NNE 35 44 1009.5 - 2.6 - - - - - - -
20/04:03pm 11.7 NE 33 43 1009.3 - 2.6 - - - - - - -
20/04:00pm 11.8 NE 34 41 1009.5 - 2.6 - - - - - - -
20/03:55pm 11.6 NE 32 41 1009.3 - 2.6 - - - - - - -
20/03:30pm 11.5 NE 27 37 1009.5 - 2.6 - - - - - - -
20/03:00pm 11.2 NE 28 39 1010.8 - 2.6 Recent precip. - - - - - -
20/02:35pm 11.3 NE 24 35 1010.9 - 2.6 - - - - - - -
20/02:30pm 11.3 NE 26 35 1011.2 - 2.6 - - - - - - -
20/02:14pm 11.5 NE 24 34 1011.5 - 2.4 - - - - - - -
20/02:00pm 11.1 NE 24 32 1012.3 - 2.4 - - - - - - -
20/01:30pm 11.0 NNE 24 30 1013.1 - 2.0 - - - - - - -
20/01:00pm 11.5 NNE 29 34 1013.6 - 0.4 - - - - - - -
20/12:30pm 13.2 NNE 29 37 1014.5 - 0.0 - - - - - - -
20/12:00pm 13.0 NNE 29 33 1015.3 - 0.0 - - - - - - -
20/11:30am 13.1 NE 27 34 1015.5 - 0.0 - - - - - - -
20/11:12am 12.9 NE 27 37 1015.6 - 0.0 - - - - - - -
20/11:00am 12.8 NE 26 34 1015.6 - 0.0 - - - - - - -
20/10:45am 12.8 NE 22 32 1016.4 - 0.0 - - - - - - -
20/10:30am 12.7 NE 23 32 1016.9 - 0.0 - - - - - - -
20/10:00am 12.8 NE 21 30 1017.1 - 0.0 - - - - - - -
20/09:30am 13.0 NE 21 29 1018.3 - 0.0 - - - - - - -
20/09:00am 13.0 NE 19 27 1018.8 - 0.0 - - - - - - -
20/08:47am 13.2 NE 19 29 1019.0 - 0.0 - - - - - - -
20/08:30am 13.0 NE 19 28 1019.0 - 0.0 - - - - - - -
20/08:00am 12.9 NE 19 27 1019.5 - 0.0 - - - - - - -
20/07:30am 13.0 NE 17 25 1019.9 - 0.0 - - - - - - -
20/07:00am 12.8 NE 18 26 1020.0 - 0.0 - - - - - - -
20/06:30am 12.6 NE 18 26 1019.9 - 0.0 - - - - - - -
20/06:00am 12.8 NE 18 24 1020.3 - 0.0 - - - - - - -
20/05:30am 12.6 NE 18 26 1020.4 - 0.0 - - - - - - -
20/05:00am 12.6 NE 19 26 1020.4 - 0.0 - - - - - - -
20/04:30am 12.4 NE 17 26 1020.9 - 0.0 - - - - - - -
20/04:00am 12.3 NE 17 22 1021.5 - 0.0 - - - - - - -
20/03:30am 12.2 ENE 17 23 1021.8 - 0.0 - - - - - - -
20/03:00am 12.0 ENE 20 23 1022.2 - 0.0 - - - - - - -
20/02:30am 12.0 ENE 20 23 1022.4 - 0.0 - - - - - - -
20/02:00am 12.1 ENE 20 23 1022.5 - 0.0 - - - - - - -
20/01:30am 12.1 ENE 21 25 1022.6 - 0.0 - - - - - - -
20/01:00am 12.3 ENE 17 22 1023.6 - 0.0 - - - - - - -
20/12:30am 12.3 NE 13 18 1024.2 - 0.0 - - - - - - -
20/12:00am 12.2 ENE 13 18 1024.3 - 0.0 - - - - - - -
 
Date/Time
CST
Temp
°C
Wind Pressure Rain since
9am
mm
Weather Cloud Vis
km
Sea
Height
m
Swell
Dir  Spd
kts
Gust
kts
hPa Trend Height
m
Period
s
Dir
19/11:30pm 12.1 NE 11 16 1024.7 - 0.0 - - - - - - -
19/11:00pm 12.0 NE 10 15 1025.2 - 0.0 - - - - - - -
19/10:30pm 12.0 ENE 10 14 1025.8 - 0.0 - - - - - - -
19/10:00pm 12.3 ENE 10 14 1026.0 - 0.0 - - - - - - -
19/09:30pm 12.2 NE 9 14 1026.2 - 0.0 - - - - - - -
19/09:00pm 12.4 ENE 12 15 1026.1 - 0.0 - - - - - - -
19/08:30pm 12.2 ENE 11 15 1026.1 - 0.0 - - - - - - -
19/08:00pm 12.2 ENE 10 12 1026.2 - 0.0 - - - - - - -
19/07:30pm 11.7 E 9 10 1026.5 - 0.0 - - - - - - -
19/07:00pm 11.7 E 8 9 1026.8 - 0.0 - - - - - - -
19/06:30pm 11.9 E 7 10 1026.9 - 0.0 - - - - - - -
19/06:00pm 12.2 ENE 7 9 1026.8 - 0.0 - - - - - - -
19/05:30pm 12.7 ENE 8 11 1026.6 - 0.0 - - - - - - -
19/05:00pm 13.1 NE 9 13 1026.8 - 0.0 - - - - - - -
19/04:30pm 13.2 NE 7 10 1026.9 - 0.0 - - - - - - -
19/04:00pm 13.2 NE 6 8 1027.2 - 0.0 - - - - - - -
19/03:30pm 13.3 ENE 6 8 1027.2 - 0.0 - - - - - - -
19/03:00pm 13.3 E 7 9 1027.2 - 0.0 - - - - - - -
19/02:30pm 13.6 E 8 11 1027.3 - 0.0 - - - - - - -
19/02:00pm 13.8 E 9 13 1027.3 - 0.0 - - - - - - -
19/01:30pm 14.1 E 9 11 1027.7 - 0.0 - - - - - - -
19/01:00pm 13.9 ESE 6 10 1028.1 - 0.0 - - - - - - -
19/12:30pm 14.5 SE 6 8 1028.5 - 0.0 - - - - - - -
19/12:00pm 14.5 SE 7 10 1028.8 - 0.0 - - - - - - -
19/11:30am 14.5 ESE 6 9 1029.3 - 0.0 - - - - - - -
19/11:00am 14.7 ESE 6 9 1029.6 - 0.0 - - - - - - -
19/10:30am 14.1 SE 6 8 1029.7 - 0.0 - - - - - - -
19/10:00am 13.6 SE 6 7 1029.8 - 0.0 - - - - - - -
19/09:30am 13.4 SSE 6 8 1029.9 - 0.0 - - - - - - -
19/09:00am 13.1 SSE 7 9 1029.8 - 0.2 - - - - - - -
19/08:30am 12.7 SSW 8 10 1029.4 - 0.2 - - - - - - -
19/08:00am 12.5 SSW 9 11 1029.0 - 0.2 - - - - - - -
19/07:30am 12.0 SW 8 10 1028.9 - 0.2 - - - - - - -
19/07:00am 11.7 SSW 9 12 1028.5 - 0.2 - - - - - - -
19/06:30am 11.9 SSW 9 12 1028.1 - 0.2 - - - - - - -
19/06:00am 12.0 SSW 11 18 1027.7 - 0.2 - - - - - - -
19/05:30am 12.1 SSW 9 11 1027.6 - 0.2 - - - - - - -
19/05:00am 12.0 SW 9 11 1027.5 - 0.2 - - - - - - -
19/04:30am 12.1 SW 9 11 1027.4 - 0.2 - - - - - - -
19/04:00am 12.2 SW 10 13 1027.2 - 0.2 - - - - - - -
19/03:30am 12.3 SW 9 13 1027.0 - 0.2 - - - - - - -
19/03:00am 12.2 SW 9 12 1027.0 - 0.2 - - - - - - -
19/02:30am 12.3 SW 10 13 1027.1 - 0.2 - - - - - - -
19/02:00am 12.3 SW 9 11 1027.3 - 0.2 - - - - - - -
19/01:30am 12.1 SW 13 17 1027.2 - 0.2 - - - - - - -
19/01:00am 12.3 SSW 13 17 1027.1 - 0.2 - - - - - - -
19/12:30am 12.4 SW 12 14 1027.1 - 0.2 - - - - - - -
19/12:00am 12.5 SW 13 16 1027.1 - 0.2 - - - - - - -
 
Date/Time
CST
Temp
°C
Wind Pressure Rain since
9am
mm
Weather Cloud Vis
km
Sea
Height
m
Swell
Dir  Spd
kts
Gust
kts
hPa Trend Height
m
Period
s
Dir
18/11:30pm 12.6 SW 13 16 1027.2 - 0.2 - - - - - - -
18/11:00pm 12.6 SW 15 18 1027.1 - 0.2 - - - - - - -
18/10:30pm 12.6 SW 16 19 1027.0 - 0.2 - - - - - - -
18/10:00pm 12.6 SW 16 21 1026.9 - 0.2 - - - - - - -
18/09:30pm 12.6 SW 16 19 1026.9 - 0.2 - - - - - - -
18/09:00pm 12.6 WSW 15 20 1026.8 - 0.2 - - - - - - -
18/08:30pm 12.8 WSW 16 19 1026.6 - 0.2 - - - - - - -
18/08:00pm 12.6 WSW 18 23 1026.5 - 0.2 - - - - - - -
18/07:30pm 12.5 WSW 18 22 1026.1 - 0.2 - - - - - - -
18/07:00pm 12.7 SW 19 23 1026.1 - 0.2 - - - - - - -
18/06:30pm 12.8 WSW 19 23 1025.8 - 0.2 - - - - - - -
18/06:00pm 12.8 SW 21 25 1025.5 - 0.2 - - - - - - -
18/05:30pm 13.0 WSW 21 25 1025.1 - 0.2 - - - - - - -
18/05:00pm 13.4 WSW 20 25 1024.7 - 0.2 - - - - - - -
18/04:30pm 13.5 WSW 21 25 1024.5 - 0.2 - - - - - - -
18/04:00pm 13.8 WSW 21 25 1024.2 - 0.2 - - - - - - -
18/03:30pm 13.6 WSW 21 25 1024.2 - 0.2 - - - - - - -
18/03:00pm 13.6 WSW 24 28 1024.0 - 0.2 - - - - - - -
18/02:30pm 13.8 WSW 21 27 1023.8 - 0.2 - - - - - - -
18/02:00pm 13.5 WSW 24 29 1023.8 - 0.2 - - - - - - -
18/01:30pm 13.8 WSW 24 30 1023.6 - 0.2 - - - - - - -
18/01:00pm 13.4 WSW 27 31 1023.6 - 0.2 - - - - - - -
18/12:30pm 13.0 WSW 27 31 1023.7 - 0.2 - - - - - - -
18/12:00pm 12.8 WSW 25 30 1023.9 - 0.2 Recent precip. - - - - - -
18/11:30am 11.8 WSW 24 29 1023.9 - 0.2 - - - - - - -
18/11:00am 12.6 WSW 25 35 1023.5 - 0.0 - - - - - - -
18/10:30am 13.3 WSW 27 32 1023.3 - 0.0 - - - - - - -
18/10:00am 13.0 WSW 29 35 1022.9 - 0.0 - - - - - - -
18/09:30am 12.9 WSW 28 34 1022.5 - 0.0 - - - - - - -
18/09:00am 12.6 WSW 30 37 1022.0 - 0.8 - - - - - - -
18/08:30am 12.4 WSW 29 38 1021.4 - 0.8 - - - - - - -
18/08:00am 12.1 WSW 30 36 1020.6 - 0.8 - - - - - - -
18/07:30am 12.3 WSW 29 35 1020.1 - 0.8 - - - - - - -
18/07:00am 11.9 WSW 28 36 1019.8 - 0.8 - - - - - - -
18/06:30am 11.9 WSW 32 43 1019.4 - 0.8 - - - - - - -
18/06:22am 12.1 WSW 32 43 1019.0 - 0.8 - - - - - - -
18/06:00am 12.1 WSW 33 39 1018.7 - 0.8 - - - - - - -
18/05:30am 12.1 WSW 35 42 1018.2 - 0.8 - - - - - - -
18/05:00am 12.1 WSW 29 36 1017.8 - 0.8 - - - - - - -
18/04:30am 11.7 WSW 34 42 1017.3 - 0.8 - - - - - - -
18/04:12am 12.1 WSW 36 46 1016.6 - 0.8 - - - - - - -
18/04:00am 12.3 WSW 35 42 1016.5 - 0.8 - - - - - - -
18/03:30am 11.9 W 32 40 1016.1 - 0.8 - - - - - - -
18/03:00am 11.8 WSW 35 44 1016.1 - 0.8 - - - - - - -
18/02:30am 12.2 WSW 35 41 1015.8 - 0.8 - - - - - - -
18/02:24am 12.2 WSW 35 45 1015.7 - 0.8 - - - - - - -
18/02:00am 12.1 W 35 41 1015.4 - 0.8 - - - - - - -
18/01:30am 12.0 W 35 45 1015.3 - 0.8 - - - - - - -
18/01:04am 11.7 WSW 34 44 1015.0 - 0.8 - - - - - - -
18/01:00am 11.7 WSW 34 43 1015.1 - 0.8 - - - - - - -
18/12:33am 10.9 WSW 33 43 1015.1 - 0.8 - - - - - - -
18/12:30am 10.5 WSW 35 43 1015.1 - 0.8 - - - - - - -
18/12:12am 11.5 W 31 45 1014.4 - 0.6 - - - - - - -
18/12:03am 10.8 W 37 51 1014.9 - 0.6 - - - - - - -
18/12:00am 10.5 W 38 51 1014.7 - 0.6 - - - - - - -
 
Date/Time
CST
Temp
°C
Wind Pressure Rain since
9am
mm
Weather Cloud Vis
km
Sea
Height
m
Swell
Dir  Spd
kts
Gust
kts
hPa Trend Height
m
Period
s
Dir
17/11:30pm 11.4 WSW 36 50 1014.2 - 0.6 - - - - - - -
17/11:10pm 11.9 WSW 35 47 1013.6 - 0.6 - - - - - - -
17/11:00pm 11.8 WSW 36 44 1013.8 - 0.6 - - - - - - -
17/10:30pm 12.2 W 33 42 1013.3 - 0.4 - - - - - - -
17/10:05pm 11.9 W 37 48 1013.1 - 0.4 - - - - - - -
17/10:00pm 12.2 W 37 46 1013.2 - 0.4 - - - - - - -
17/09:30pm 12.2 W 37 46 1012.6 - 0.4 - - - - - - -
17/09:00pm 12.4 W 40 50 1012.1 - 0.4 - - - - - - -
17/08:30pm 12.5 W 38 48 1011.7 - 0.4 - - - - - - -
17/08:11pm 12.6 W 37 47 1011.6 - 0.4 - - - - - - -
17/08:00pm 12.3 W 40 48 1011.1 - 0.4 - - - - - - -
17/07:44pm 12.4 W 39 49 1011.1 - 0.4 - - - - - - -
17/07:30pm 12.7 W 38 46 1010.9 - 0.4 - - - - - - -
17/07:00pm 11.6 W 41 53 1010.6 - 0.4 - - - - - - -
17/06:33pm 12.3 W 41 54 1009.4 - 0.4 - - - - - - -
17/06:30pm 12.4 W 40 47 1009.5 - 0.4 - - - - - - -
17/06:18pm 12.2 W 35 45 1009.5 - 0.4 - - - - - - -
17/06:00pm 12.0 W 37 46 1009.5 - 0.4 - - - - - - -
17/05:30pm 12.3 W 41 47 1009.0 - 0.4 - - - - - - -

Other Formats:

Comma delimited format used in spreadsheet applications
http://www.bom.gov.au/fwo/IDS60701/IDS60701.94804.axf

JavaScript Object Notation format (JSON) in row-major order
http://www.bom.gov.au/fwo/IDS60701/IDS60701.94804.json